Time;durP1;ratioP1;P1;durP2;ratioP2;P2;SDS_P1;SDS_P2;PMS_P1;PMS_P2;Temp;Humidity;BMP_temperature;BMP_pressure;BME280_temperature;BME280_humidity;BME280_pressure;Samples;Min_cycle;Max_cycle;Signal;HPM_P1;HPM_P2
2024/04/07 00:00:48;;;;;;;0.70;0.60;;;19.40;1.00;;;;;;2612766;54;20191;-66
2024/04/07 00:03:17;;;;;;;0.70;0.50;;;19.40;1.00;;;;;;2612631;47;20428;-66
2024/04/07 00:05:44;;;;;;;0.90;0.90;;;19.40;1.00;;;;;;2612600;54;20435;-62
2024/04/07 00:08:09;;;;;;;0.70;0.50;;;19.40;1.00;;;;;;2613120;39;20714;-61
2024/04/07 00:10:37;;;;;;;0.70;0.60;;;19.40;1.00;;;;;;2613138;54;20956;-61
2024/04/07 00:13:04;;;;;;;0.70;0.60;;;19.40;1.00;;;;;;2612894;47;20420;-60
2024/04/07 00:15:30;;;;;;;0.70;0.50;;;19.40;1.00;;;;;;2613615;54;20387;-61
2024/04/07 00:17:55;;;;;;;0.70;0.60;;;19.40;1.00;;;;;;2613150;54;20454;-59
2024/04/07 00:20:21;;;;;;;0.70;0.50;;;19.40;1.00;;;;;;2613018;54;20418;-60
2024/04/07 00:22:47;;;;;;;0.63;0.50;;;19.40;1.00;;;;;;2613001;54;20150;-61
2024/04/07 00:25:13;;;;;;;0.70;0.60;;;19.40;1.00;;;;;;2613060;54;20159;-61
2024/04/07 00:27:38;;;;;;;0.60;0.50;;;19.40;1.00;;;;;;2613259;54;20138;-60
2024/04/07 00:30:05;;;;;;;0.70;0.50;;;19.40;1.00;;;;;;2613012;54;20169;-59
2024/04/07 00:32:31;;;;;;;0.70;0.50;;;19.40;1.00;;;;;;2613089;54;20185;-60
2024/04/07 00:34:57;;;;;;;0.70;0.57;;;19.40;1.00;;;;;;2613021;54;21103;-60
2024/04/07 00:37:25;;;;;;;0.60;0.50;;;19.40;1.00;;;;;;2613253;54;20153;-63
2024/04/07 00:39:52;;;;;;;0.70;0.50;;;19.40;1.00;;;;;;2613180;54;20151;-63
2024/04/07 00:42:18;;;;;;;0.60;0.50;;;19.40;1.00;;;;;;2612712;47;20419;-63
2024/04/07 00:44:45;;;;;;;0.60;0.50;;;19.40;1.00;;;;;;2612543;54;20487;-63
2024/04/07 00:47:11;;;;;;;0.60;0.50;;;19.40;1.00;;;;;;2612747;54;20286;-62
2024/04/07 00:49:38;;;;;;;0.67;0.50;;;19.40;1.00;;;;;;2612648;54;20419;-63
2024/04/07 00:52:04;;;;;;;0.70;0.60;;;19.40;1.00;;;;;;2612893;54;20450;-63
2024/04/07 00:54:30;;;;;;;0.70;0.53;;;19.40;1.00;;;;;;2613408;54;20556;-63
2024/04/07 00:56:56;;;;;;;0.70;0.60;;;19.40;1.00;;;;;;2613156;54;20415;-62
2024/04/07 00:59:22;;;;;;;0.70;0.60;;;19.40;1.00;;;;;;2612375;52;20784;-64
2024/04/07 01:01:48;;;;;;;0.70;0.60;;;19.40;1.00;;;;;;2612328;47;20169;-63
2024/04/07 01:04:14;;;;;;;0.70;0.60;;;19.40;1.00;;;;;;2612227;54;20969;-62
2024/04/07 01:06:40;;;;;;;0.67;0.60;;;19.40;1.00;;;;;;2613060;54;20166;-63
2024/04/07 01:09:07;;;;;;;0.70;0.60;;;19.40;1.00;;;;;;2613260;47;20806;-63
2024/04/07 01:11:32;;;;;;;0.67;0.60;;;19.40;1.00;;;;;;2613085;47;20466;-64
2024/04/07 01:13:58;;;;;;;0.70;0.50;;;19.40;1.00;;;;;;2612488;54;20407;-63
2024/04/07 01:16:24;;;;;;;0.60;0.50;;;19.40;1.00;;;;;;2612781;54;20177;-66
2024/04/07 01:18:49;;;;;;;0.70;0.50;;;19.40;1.00;;;;;;2613118;54;20197;-65
2024/04/07 01:21:15;;;;;;;0.60;0.50;;;19.40;1.00;;;;;;2612852;47;20158;-65
2024/04/07 01:23:41;;;;;;;0.70;0.60;;;19.40;1.00;;;;;;2612807;47;20182;-66
2024/04/07 01:26:07;;;;;;;0.70;0.67;;;19.40;1.00;;;;;;2613100;47;20254;-66
2024/04/07 01:28:33;;;;;;;0.60;0.50;;;19.40;1.00;;;;;;2613105;54;20170;-66
2024/04/07 01:30:59;;;;;;;0.70;0.50;;;19.40;1.00;;;;;;2613012;54;20403;-65
2024/04/07 01:33:24;;;;;;;0.60;0.50;;;19.40;1.00;;;;;;2612196;54;20420;-65
2024/04/07 01:35:50;;;;;;;0.70;0.50;;;19.40;1.00;;;;;;2613087;39;20578;-65
2024/04/07 01:38:16;;;;;;;0.70;0.57;;;19.40;1.00;;;;;;2612789;54;20153;-66
2024/04/07 01:40:43;;;;;;;0.70;0.60;;;19.40;1.00;;;;;;2612675;54;20715;-66
2024/04/07 01:43:09;;;;;;;0.70;0.50;;;19.40;1.00;;;;;;2613113;39;20534;-65
2024/04/07 01:45:35;;;;;;;0.60;0.53;;;19.40;1.00;;;;;;2612771;47;20518;-61
2024/04/07 01:48:00;;;;;;;0.70;0.60;;;19.40;1.00;;;;;;2613095;54;20170;-62
2024/04/07 01:50:26;;;;;;;0.70;0.60;;;19.40;1.00;;;;;;2612661;54;20804;-63
2024/04/07 01:52:55;;;;;;;0.70;0.50;;;19.40;1.00;;;;;;2612545;54;20198;-62
2024/04/07 01:55:20;;;;;;;1.33;1.23;;;19.40;1.00;;;;;;2612705;54;20190;-62
2024/04/07 01:57:47;;;;;;;0.70;0.50;;;19.40;1.00;;;;;;2612501;54;20989;-62
2024/04/07 02:00:12;;;;;;;0.70;0.60;;;19.40;1.00;;;;;;2612058;47;20435;-62
2024/04/07 02:02:38;;;;;;;0.70;0.50;;;19.40;1.00;;;;;;2612070;54;20434;-62
2024/04/07 02:05:07;;;;;;;0.70;0.53;;;19.40;1.00;;;;;;2612109;54;20975;-59
2024/04/07 02:07:32;;;;;;;0.70;0.70;;;19.40;1.00;;;;;;2613184;39;20369;-60
2024/04/07 02:09:59;;;;;;;0.70;0.60;;;19.40;1.00;;;;;;2612864;47;20451;-60
2024/04/07 02:12:24;;;;;;;0.67;0.50;;;19.40;1.00;;;;;;2612867;54;20201;-58
2024/04/07 02:14:50;;;;;;;0.60;0.50;;;19.40;1.00;;;;;;2612244;47;20423;-59
2024/04/07 02:17:16;;;;;;;0.67;0.50;;;19.40;1.00;;;;;;2612727;54;20179;-59
2024/04/07 02:19:41;;;;;;;0.70;0.60;;;19.40;1.00;;;;;;2612517;54;20708;-59
2024/04/07 02:22:08;;;;;;;0.70;0.60;;;19.40;1.00;;;;;;2612841;54;20162;-59
2024/04/07 02:24:34;;;;;;;0.70;0.60;;;19.40;1.00;;;;;;2612764;54;20166;-59
2024/04/07 02:27:00;;;;;;;0.70;0.50;;;19.40;1.00;;;;;;2612776;54;20442;-60
2024/04/07 02:29:26;;;;;;;0.70;0.60;;;19.40;1.00;;;;;;2612506;47;21004;-60
2024/04/07 02:31:52;;;;;;;0.70;0.60;;;19.40;1.00;;;;;;2612523;54;22278;-59
2024/04/07 02:34:17;;;;;;;0.70;0.70;;;19.40;1.00;;;;;;2612723;47;20547;-60
2024/04/07 02:36:43;;;;;;;0.70;0.70;;;19.40;1.00;;;;;;2612747;47;20661;-60
2024/04/07 02:39:09;;;;;;;0.70;0.60;;;19.40;1.00;;;;;;2612712;54;20155;-60
2024/04/07 02:41:40;;;;;;;0.70;0.60;;;19.40;1.00;;;;;;2612954;39;20649;-60
2024/04/07 02:44:06;;;;;;;0.70;0.67;;;19.40;1.00;;;;;;2612540;54;20170;-60
2024/04/07 02:49:16;;;;;;;0.70;0.60;;;19.40;1.00;;;;;;2613599;54;20395;-60
2024/04/07 02:51:42;;;;;;;0.70;0.60;;;19.40;1.00;;;;;;2613476;54;20431;-60
2024/04/07 02:54:10;;;;;;;0.70;0.60;;;19.40;1.00;;;;;;2613525;54;20214;-60
2024/04/07 02:56:36;;;;;;;0.70;0.60;;;19.40;1.00;;;;;;2613861;39;20596;-66
2024/04/07 02:59:02;;;;;;;0.70;0.60;;;19.40;1.00;;;;;;2612610;47;20522;-66
2024/04/07 03:01:27;;;;;;;0.70;0.60;;;19.40;1.00;;;;;;2613671;39;20867;-65
2024/04/07 03:03:54;;;;;;;0.70;0.53;;;19.40;1.00;;;;;;2612573;54;20900;-66
2024/04/07 03:06:20;;;;;;;0.70;0.60;;;19.40;1.00;;;;;;2612508;47;20174;-66
2024/04/07 03:08:46;;;;;;;0.70;0.60;;;19.40;1.00;;;;;;2613485;54;20435;-66
2024/04/07 03:11:12;;;;;;;0.60;0.50;;;19.40;1.00;;;;;;2613137;54;20511;-66
2024/04/07 03:13:38;;;;;;;0.70;0.60;;;19.40;1.00;;;;;;2613464;39;20752;-66
2024/04/07 03:16:13;;;;;;;0.60;0.50;;;19.40;1.00;;;;;;2613278;54;20479;-73
2024/04/07 03:18:39;;;;;;;0.67;0.53;;;19.40;1.00;;;;;;2614018;54;20482;-73
2024/04/07 03:21:05;;;;;;;0.60;0.50;;;19.40;1.00;;;;;;2614271;39;21244;-72
2024/04/07 03:23:31;;;;;;;0.67;0.50;;;19.40;1.00;;;;;;2613915;54;20423;-73
2024/04/07 03:25:57;;;;;;;0.70;0.60;;;19.40;1.00;;;;;;2613728;46;20175;-71
2024/04/07 03:28:23;;;;;;;0.70;0.60;;;19.40;1.00;;;;;;2614588;31;20866;-73
2024/04/07 03:30:48;;;;;;;0.70;0.60;;;19.40;1.00;;;;;;2613854;47;20186;-72
2024/04/07 03:33:14;;;;;;;0.70;0.50;;;19.40;1.00;;;;;;2613271;54;20182;-73
2024/04/07 03:35:40;;;;;;;0.70;0.60;;;19.40;1.00;;;;;;2613050;54;20166;-65
2024/04/07 03:38:06;;;;;;;0.70;0.60;;;19.40;1.00;;;;;;2612926;54;20170;-66
2024/04/07 03:40:31;;;;;;;0.70;0.63;;;19.40;1.00;;;;;;2613601;54;20552;-66
2024/04/07 03:42:57;;;;;;;0.70;0.70;;;19.50;1.00;;;;;;2613299;47;20171;-66
2024/04/07 03:45:23;;;;;;;0.70;0.60;;;19.40;1.00;;;;;;2613326;54;20170;-66
2024/04/07 03:47:48;;;;;;;0.70;0.60;;;19.40;1.00;;;;;;2613262;54;20173;-66
2024/04/07 03:50:14;;;;;;;0.70;0.60;;;19.40;1.00;;;;;;2613095;54;20162;-65
2024/04/07 03:52:40;;;;;;;0.60;0.60;;;19.40;1.00;;;;;;2613422;39;20581;-65
2024/04/07 03:55:06;;;;;;;0.70;0.50;;;19.40;1.00;;;;;;2613314;54;20267;-66
2024/04/07 03:57:32;;;;;;;0.70;0.60;;;19.50;1.00;;;;;;2612547;47;20472;-65
2024/04/07 03:59:58;;;;;;;0.70;0.60;;;19.40;1.00;;;;;;2612699;54;20171;-66
2024/04/07 04:02:26;;;;;;;0.63;0.53;;;19.40;1.00;;;;;;2612190;54;20414;-66
2024/04/07 04:05:06;;;;;;;0.70;0.60;;;19.40;1.00;;;;;;2613069;39;20893;-67
2024/04/07 04:07:32;;;;;;;0.70;0.60;;;19.40;1.00;;;;;;2612980;54;20392;-63
2024/04/07 04:09:59;;;;;;;0.60;0.60;;;19.40;1.00;;;;;;2613400;54;20396;-63
2024/04/07 04:12:26;;;;;;;0.70;0.60;;;19.50;1.00;;;;;;2612892;54;20439;-63
2024/04/07 04:14:54;;;;;;;0.70;0.60;;;19.50;1.00;;;;;;2613058;54;20399;-62
2024/04/07 04:17:20;;;;;;;0.70;0.70;;;19.40;1.00;;;;;;2613163;54;20407;-62
2024/04/07 04:19:46;;;;;;;0.60;0.50;;;19.40;1.00;;;;;;2613179;47;20502;-62
2024/04/07 04:22:12;;;;;;;0.70;0.60;;;19.40;1.00;;;;;;2613213;47;20159;-63
2024/04/07 04:24:38;;;;;;;0.70;0.60;;;19.40;1.00;;;;;;2612983;54;20162;-63
2024/04/07 04:27:05;;;;;;;0.70;0.60;;;19.40;1.00;;;;;;2613624;39;20674;-60
2024/04/07 04:29:35;;;;;;;0.70;0.60;;;19.40;1.00;;;;;;2613522;39;20705;-58
2024/04/07 04:32:02;;;;;;;0.67;0.60;;;19.40;1.00;;;;;;2613241;54;20425;-58
2024/04/07 04:34:28;;;;;;;0.70;0.60;;;19.40;1.00;;;;;;2613138;54;20445;-59
2024/04/07 04:36:55;;;;;;;0.67;0.60;;;19.40;1.00;;;;;;2612902;54;20530;-58
2024/04/07 04:39:22;;;;;;;0.70;0.60;;;19.40;1.00;;;;;;2613283;54;20425;-59
2024/04/07 04:41:48;;;;;;;0.70;0.60;;;19.40;1.00;;;;;;2612641;54;20407;-58
2024/04/07 04:44:14;;;;;;;0.70;0.60;;;19.40;1.00;;;;;;2612823;54;20432;-58
2024/04/07 04:46:44;;;;;;;0.70;0.60;;;19.40;1.00;;;;;;2613330;54;20419;-71
2024/04/07 04:49:10;;;;;;;0.70;0.60;;;19.40;1.00;;;;;;2613526;53;20553;-72
2024/04/07 04:51:36;;;;;;;0.70;0.70;;;19.40;1.00;;;;;;2613324;54;20411;-73
2024/04/07 04:54:03;;;;;;;0.70;0.60;;;19.40;1.00;;;;;;2613155;47;20582;-74
2024/04/07 04:56:29;;;;;;;0.70;0.60;;;19.40;1.00;;;;;;2613338;54;20159;-72
2024/04/07 04:58:57;;;;;;;0.70;0.70;;;19.40;1.00;;;;;;2612978;54;20433;-73
2024/04/07 05:01:23;;;;;;;0.70;0.60;;;19.40;1.00;;;;;;2612799;54;20500;-73
2024/04/07 05:03:50;;;;;;;0.70;0.60;;;19.50;1.00;;;;;;2613131;39;21308;-73
2024/04/07 05:06:16;;;;;;;0.70;0.70;;;19.40;1.00;;;;;;2612667;54;20415;-73
2024/04/07 05:08:43;;;;;;;0.63;0.53;;;19.40;1.00;;;;;;2613661;54;20412;-73
2024/04/07 05:11:09;;;;;;;0.60;0.60;;;19.40;1.00;;;;;;2613282;54;20431;-74
2024/04/07 05:13:35;;;;;;;0.70;0.70;;;19.40;1.00;;;;;;2612848;47;20420;-73
2024/04/07 05:16:04;;;;;;;0.70;0.60;;;19.40;1.00;;;;;;2613314;54;20436;-66
2024/04/07 05:18:31;;;;;;;0.70;0.60;;;19.40;1.00;;;;;;2612636;54;20973;-66
2024/04/07 05:21:00;;;;;;;0.67;0.60;;;19.40;1.00;;;;;;2612528;54;20403;-67
2024/04/07 05:23:26;;;;;;;0.70;0.60;;;19.40;1.00;;;;;;2612725;47;20415;-66
2024/04/07 05:25:52;;;;;;;0.70;0.60;;;19.40;1.00;;;;;;2612830;54;20413;-67
2024/04/07 05:28:18;;;;;;;0.70;0.60;;;19.40;1.00;;;;;;2613110;54;20677;-67
2024/04/07 05:30:43;;;;;;;0.70;0.60;;;19.40;1.00;;;;;;2613010;47;20422;-66
2024/04/07 05:33:09;;;;;;;0.60;0.50;;;19.40;1.00;;;;;;2612439;47;20167;-66
2024/04/07 05:35:36;;;;;;;0.70;0.57;;;19.40;1.00;;;;;;2612184;47;20165;-63
2024/04/07 05:38:02;;;;;;;0.60;0.50;;;19.50;1.00;;;;;;2612585;54;20507;-62
2024/04/07 05:40:28;;;;;;;0.63;0.43;;;19.40;1.00;;;;;;2613429;46;20427;-63
2024/04/07 05:42:54;;;;;;;0.70;0.50;;;19.40;1.00;;;;;;2612698;47;20482;-63
2024/04/07 05:45:21;;;;;;;0.60;0.50;;;19.40;1.00;;;;;;2613716;39;20517;-62
2024/04/07 05:47:53;;;;;;;0.70;0.50;;;19.40;1.00;;;;;;2612660;54;20500;-63
2024/04/07 05:50:20;;;;;;;0.70;0.60;;;19.40;1.00;;;;;;2612960;46;20449;-63
2024/04/07 05:52:45;;;;;;;0.70;0.50;;;19.40;1.00;;;;;;2612826;54;20404;-63
2024/04/07 05:55:11;;;;;;;0.60;0.50;;;19.40;1.00;;;;;;2613237;39;20770;-73
2024/04/07 05:57:38;;;;;;;0.70;0.50;;;19.40;1.00;;;;;;2612060;54;20176;-73
2024/04/07 06:00:08;;;;;;;0.60;0.50;;;19.40;1.00;;;;;;2611519;54;20151;-73
2024/04/07 06:02:35;;;;;;;0.70;0.60;;;19.40;1.00;;;;;;2612480;39;20683;-72
2024/04/07 06:05:01;;;;;;;0.70;0.60;;;19.50;1.00;;;;;;2612989;54;20753;-73
2024/04/07 06:07:27;;;;;;;0.70;0.60;;;19.40;1.00;;;;;;2612846;46;20444;-73
2024/04/07 06:09:53;;;;;;;0.60;0.50;;;19.40;1.00;;;;;;2612728;47;20442;-72
2024/04/07 06:12:18;;;;;;;0.60;0.50;;;19.40;1.00;;;;;;2612475;47;20669;-73
2024/04/07 06:14:46;;;;;;;0.63;0.50;;;19.40;1.00;;;;;;2612965;47;20431;-74
2024/04/07 06:17:11;;;;;;;0.93;0.87;;;19.40;1.00;;;;;;2613141;54;20273;-73
2024/04/07 06:19:37;;;;;;;0.60;0.50;;;19.40;1.00;;;;;;2613232;39;20770;-72
2024/04/07 06:22:03;;;;;;;0.60;0.50;;;19.40;1.00;;;;;;2613753;54;20242;-73
2024/04/07 06:24:29;;;;;;;0.60;0.50;;;19.50;1.00;;;;;;2613134;54;20151;-72
2024/04/07 06:26:54;;;;;;;0.63;0.50;;;19.50;1.00;;;;;;2613355;54;20651;-66
2024/04/07 06:29:20;;;;;;;3.27;2.97;;;19.50;1.00;;;;;;2613206;54;20159;-65
2024/04/07 06:31:46;;;;;;;0.60;0.50;;;19.50;1.00;;;;;;2614237;54;20162;-65
2024/04/07 06:34:12;;;;;;;0.70;0.50;;;19.50;1.00;;;;;;2613148;47;20167;-65
2024/04/07 06:36:37;;;;;;;0.60;0.50;;;19.50;1.00;;;;;;2613439;47;20173;-65
2024/04/07 06:39:03;;;;;;;0.67;0.50;;;19.50;1.00;;;;;;2613843;54;20449;-66
2024/04/07 06:41:29;;;;;;;0.70;0.60;;;19.50;1.00;;;;;;2613486;39;20260;-67
2024/04/07 06:43:55;;;;;;;0.70;0.50;;;19.50;1.00;;;;;;2613986;39;20577;-66
2024/04/07 06:46:21;;;;;;;0.70;0.57;;;19.50;1.00;;;;;;2613417;54;20772;-63
2024/04/07 06:48:47;;;;;;;0.70;0.53;;;19.50;1.00;;;;;;2613282;54;20431;-63
2024/04/07 06:51:13;;;;;;;0.60;0.50;;;19.50;1.00;;;;;;2613345;54;20472;-62
2024/04/07 06:53:38;;;;;;;0.60;0.50;;;19.50;1.00;;;;;;2613148;54;20194;-63
2024/04/07 06:56:04;;;;;;;0.70;0.60;;;19.50;1.00;;;;;;2613597;39;20648;-62
2024/04/07 06:58:31;;;;;;;0.70;0.60;;;19.50;1.00;;;;;;2612638;54;20289;-62
2024/04/07 07:00:59;;;;;;;0.70;0.50;;;19.50;1.00;;;;;;2612134;54;20719;-63
2024/04/07 07:03:24;;;;;;;0.70;0.60;;;19.60;1.00;;;;;;2613365;47;20419;-63
2024/04/07 07:05:50;;;;;;;0.70;0.60;;;19.60;1.00;;;;;;2613448;54;20552;-62
2024/04/07 07:08:16;;;;;;;0.70;0.50;;;19.60;1.00;;;;;;2613012;54;20681;-63
2024/04/07 07:10:49;;;;;;;0.60;0.50;;;19.60;1.00;;;;;;2613708;54;20147;-63
2024/04/07 07:13:15;;;;;;;0.70;0.60;;;19.60;1.00;;;;;;2613109;46;20165;-63
2024/04/07 07:15:41;;;;;;;0.70;0.60;;;19.60;1.00;;;;;;2613256;54;20423;-61
2024/04/07 07:18:08;;;;;;;0.70;0.70;;;19.60;1.00;;;;;;2613089;54;20187;-63
2024/04/07 07:20:34;;;;;;;0.70;0.70;;;19.60;1.00;;;;;;2613221;51;20170;-63
2024/04/07 07:22:59;;;;;;;0.70;0.60;;;19.60;1.00;;;;;;2613279;47;20411;-63
2024/04/07 07:25:25;;;;;;;0.70;0.60;;;19.60;1.00;;;;;;2612849;54;20527;-63
2024/04/07 07:27:51;;;;;;;0.70;0.60;;;19.60;1.00;;;;;;2613245;54;20170;-63
2024/04/07 07:30:17;;;;;;;0.70;0.60;;;19.60;1.00;;;;;;2612981;47;20174;-62
2024/04/07 07:32:42;;;;;;;0.70;0.57;;;19.60;1.00;;;;;;2612895;54;20511;-62
2024/04/07 07:35:08;;;;;;;0.60;0.50;;;19.60;1.00;;;;;;2613213;54;20155;-59
2024/04/07 07:37:33;;;;;;;0.70;0.50;;;19.60;1.00;;;;;;2613819;39;20256;-59
2024/04/07 07:39:59;;;;;;;0.70;0.60;;;19.60;1.00;;;;;;2612952;54;20171;-58
2024/04/07 07:42:25;;;;;;;0.60;0.50;;;19.60;1.00;;;;;;2613199;54;20281;-58
2024/04/07 07:44:50;;;;;;;0.70;0.60;;;19.60;1.00;;;;;;2613083;54;20559;-58
2024/04/07 07:47:16;;;;;;;0.70;0.60;;;19.60;1.00;;;;;;2613465;54;20653;-58
2024/04/07 07:49:42;;;;;;;0.97;0.97;;;19.60;1.00;;;;;;2613569;54;20166;-59
2024/04/07 07:52:07;;;;;;;0.70;0.53;;;19.60;1.00;;;;;;2613259;47;20170;-59
2024/04/07 07:54:33;;;;;;;0.70;0.53;;;19.60;1.00;;;;;;2612383;47;20309;-59
2024/04/07 07:56:59;;;;;;;0.70;0.60;;;19.60;1.00;;;;;;2612815;54;20250;-67
2024/04/07 07:59:24;;;;;;;0.70;0.70;;;19.60;1.00;;;;;;2612317;47;20242;-65
2024/04/07 08:01:50;;;;;;;0.70;0.60;;;19.60;1.00;;;;;;2613763;54;20226;-67
2024/04/07 08:04:16;;;;;;;0.70;0.53;;;19.60;1.00;;;;;;2613249;54;20323;-65
2024/04/07 08:06:41;;;;;;;0.70;0.60;;;19.60;1.00;;;;;;2613150;54;20151;-66
2024/04/07 08:09:07;;;;;;;0.70;0.60;;;19.60;1.00;;;;;;2613257;47;20205;-66
2024/04/07 08:11:33;;;;;;;0.70;0.60;;;19.60;1.00;;;;;;2612894;54;20201;-66
2024/04/07 08:13:58;;;;;;;0.70;0.60;;;19.60;1.00;;;;;;2613379;54;20158;-66
2024/04/07 08:16:24;;;;;;;0.70;0.60;;;19.60;1.00;;;;;;2613217;54;20683;-67
2024/04/07 08:18:50;;;;;;;0.70;0.60;;;19.60;1.00;;;;;;2613039;54;20822;-66
2024/04/07 08:21:15;;;;;;;0.70;0.60;;;19.60;1.00;;;;;;2612913;54;20258;-67
2024/04/07 08:23:41;;;;;;;0.70;0.60;;;19.60;1.00;;;;;;2613532;54;20174;-66
2024/04/07 08:26:07;;;;;;;0.70;0.57;;;19.60;1.00;;;;;;2613551;54;20649;-67
2024/04/07 08:28:32;;;;;;;0.70;0.50;;;19.60;1.00;;;;;;2613508;54;20154;-66
2024/04/07 08:30:58;;;;;;;0.70;0.60;;;19.60;1.00;;;;;;2613406;39;20608;-68
2024/04/07 08:33:24;;;;;;;0.70;0.60;;;19.70;1.00;;;;;;2612881;54;20166;-68
2024/04/07 08:35:50;;;;;;;0.70;0.50;;;19.70;1.00;;;;;;2613107;50;20158;-67
2024/04/07 08:38:15;;;;;;;0.70;0.50;;;19.70;1.00;;;;;;2613761;39;20321;-66
2024/04/07 08:40:46;;;;;;;0.70;0.60;;;19.70;1.00;;;;;;2613198;47;20182;-67
2024/04/07 08:43:12;;;;;;;0.70;0.60;;;19.70;1.00;;;;;;2612905;46;20216;-67
2024/04/07 08:45:40;;;;;;;0.70;0.53;;;19.70;1.00;;;;;;2612604;54;20415;-62
2024/04/07 08:48:08;;;;;;;0.70;0.60;;;19.80;1.00;;;;;;2613283;39;20903;-62
2024/04/07 08:50:33;;;;;;;0.70;0.60;;;19.80;1.00;;;;;;2612778;54;20423;-61
2024/04/07 08:53:02;;;;;;;0.63;0.50;;;19.80;1.00;;;;;;2613053;47;20490;-63
2024/04/07 08:55:27;;;;;;;0.70;0.60;;;19.80;1.00;;;;;;2612867;54;20403;-62
2024/04/07 08:57:54;;;;;;;0.70;0.50;;;19.80;1.00;;;;;;2612371;54;21041;-62
2024/04/07 09:00:21;;;;;;;0.70;0.60;;;19.90;1.00;;;;;;2612804;39;20498;-63
2024/04/07 09:02:48;;;;;;;0.70;0.60;;;19.90;1.00;;;;;;2612387;54;20430;-62
2024/04/07 09:05:14;;;;;;;0.70;0.70;;;19.90;1.00;;;;;;2613107;54;20427;-72
2024/04/07 09:07:40;;;;;;;0.70;0.60;;;19.90;1.00;;;;;;2613888;54;20404;-73
2024/04/07 09:10:06;;;;;;;0.70;0.60;;;19.90;1.00;;;;;;2613904;54;20783;-74
2024/04/07 09:12:31;;;;;;;0.70;0.57;;;19.90;1.00;;;;;;2614507;31;20627;-73
2024/04/07 09:14:57;;;;;;;0.70;0.60;;;20.00;1.00;;;;;;2613624;54;20665;-72
2024/04/07 09:17:23;;;;;;;0.70;0.60;;;20.00;1.00;;;;;;2613776;47;20159;-73
2024/04/07 09:19:48;;;;;;;0.70;0.50;;;20.10;1.00;;;;;;2612945;54;20189;-73
2024/04/07 09:22:14;;;;;;;0.70;0.50;;;20.10;1.00;;;;;;2613543;54;20210;-74
2024/04/07 09:24:40;;;;;;;0.70;0.50;;;20.10;1.00;;;;;;2613548;54;20166;-74
2024/04/07 09:27:12;;;;;;;0.70;0.60;;;20.10;1.00;;;;;;2613664;54;20457;-62
2024/04/07 09:29:40;;;;;;;0.70;0.50;;;20.20;1.00;;;;;;2612921;47;20197;-63
2024/04/07 09:32:06;;;;;;;0.70;0.60;;;20.10;1.00;;;;;;2613530;39;20778;-62
2024/04/07 09:34:35;;;;;;;0.67;0.50;;;20.20;1.00;;;;;;2612820;54;20439;-63
2024/04/07 09:37:05;;;;;;;0.70;0.50;;;20.20;1.00;;;;;;2612683;54;20411;-62
2024/04/07 09:39:30;;;;;;;0.70;0.50;;;20.20;1.00;;;;;;2612751;47;20428;-63
2024/04/07 09:42:01;;;;;;;0.70;0.50;;;20.20;1.00;;;;;;2612557;54;20543;-62
2024/04/07 09:44:33;;;;;;;0.70;0.60;;;20.20;1.00;;;;;;2613026;54;20162;-63
2024/04/07 09:47:05;;;;;;;0.70;0.50;;;20.20;1.00;;;;;;2612871;54;21026;-63
2024/04/07 09:49:35;;;;;;;0.70;0.60;;;20.20;1.00;;;;;;2612404;54;20433;-62
2024/04/07 09:52:07;;;;;;;0.70;0.60;;;20.20;1.00;;;;;;2613216;39;20810;-62
2024/04/07 09:54:47;;;;;;;0.70;0.50;;;20.20;1.00;;;;;;2613213;39;20906;-62
2024/04/07 09:57:17;;;;;;;0.70;0.50;;;20.30;1.00;;;;;;2613630;47;20430;-73
2024/04/07 09:59:44;;;;;;;0.70;0.43;;;20.30;1.00;;;;;;2614561;47;20434;-72
2024/04/07 10:02:11;;;;;;;0.70;0.50;;;20.30;1.00;;;;;;2614312;54;20449;-73
2024/04/07 10:04:38;;;;;;;0.70;0.60;;;20.30;1.00;;;;;;2613929;47;20459;-73
2024/04/07 10:07:05;;;;;;;0.70;0.50;;;20.30;1.00;;;;;;2614576;54;20416;-74
2024/04/07 10:09:32;;;;;;;0.70;0.60;;;20.30;1.00;;;;;;2614622;39;20904;-73
2024/04/07 10:11:58;;;;;;;0.70;0.50;;;20.30;1.00;;;;;;2613746;54;20413;-72
2024/04/07 10:14:35;;;;;;;0.70;0.50;;;20.30;1.00;;;;;;2614230;47;20456;-73
2024/04/07 10:17:00;;;;;;;0.70;0.57;;;20.30;1.00;;;;;;2613683;47;20519;-67
2024/04/07 10:19:27;;;;;;;0.67;0.50;;;20.30;1.00;;;;;;2613538;54;20419;-67
2024/04/07 10:21:54;;;;;;;0.70;0.50;;;20.30;1.00;;;;;;2613320;54;20165;-66
2024/04/07 10:24:20;;;;;;;0.70;0.60;;;20.20;1.00;;;;;;2613824;54;20431;-66
2024/04/07 10:26:58;;;;;;;0.70;0.50;;;20.20;1.00;;;;;;2613445;46;20576;-67
2024/04/07 10:29:32;;;;;;;0.70;0.60;;;20.20;1.00;;;;;;2613785;54;20484;-67
2024/04/07 10:31:58;;;;;;;0.70;0.60;;;20.20;1.00;;;;;;2613039;47;20422;-67
2024/04/07 10:34:24;;;;;;;0.70;0.60;;;20.20;1.00;;;;;;2612950;54;20423;-67
2024/04/07 10:36:56;;;;;;;0.70;0.53;;;20.20;1.00;;;;;;2613468;54;20166;-64
2024/04/07 10:39:27;;;;;;;0.80;0.80;;;20.20;1.00;;;;;;2613833;39;20548;-63
2024/04/07 10:41:53;;;;;;;0.70;0.50;;;20.10;1.00;;;;;;2613651;39;20521;-62
2024/04/07 10:44:19;;;;;;;0.70;0.60;;;20.10;1.00;;;;;;2613727;54;20918;-63
2024/04/07 10:46:45;;;;;;;0.67;0.60;;;20.10;1.00;;;;;;2613216;54;20246;-63
2024/04/07 10:49:11;;;;;;;0.70;0.60;;;20.10;1.00;;;;;;2613195;54;20922;-62
2024/04/07 10:51:37;;;;;;;0.70;0.60;;;20.20;1.00;;;;;;2613291;54;20404;-63
2024/04/07 10:54:03;;;;;;;0.70;0.60;;;20.10;1.00;;;;;;2613583;47;20482;-63
2024/04/07 10:56:30;;;;;;;0.70;0.60;;;20.20;1.00;;;;;;2613099;54;20167;-63
2024/04/07 10:59:00;;;;;;;0.70;0.50;;;20.20;1.00;;;;;;2613513;54;21373;-63
2024/04/07 11:01:26;;;;;;;0.70;0.60;;;20.20;1.00;;;;;;2613233;47;20403;-63
2024/04/07 11:03:58;;;;;;;0.70;0.60;;;20.20;1.00;;;;;;2611456;39;20922;-63
2024/04/07 11:06:27;;;;;;;0.70;0.60;;;20.30;1.00;;;;;;2612701;54;20941;-61
2024/04/07 11:08:54;;;;;;;0.70;0.60;;;20.50;1.00;;;;;;2612255;47;20947;-61
2024/04/07 11:11:21;;;;;;;0.70;0.60;;;20.70;1.00;;;;;;2612830;47;20427;-61
2024/04/07 11:13:50;;;;;;;0.70;0.60;;;20.90;1.00;;;;;;2612724;54;20574;-62
2024/04/07 11:16:16;;;;;;;0.70;0.60;;;21.10;1.00;;;;;;2612262;54;20423;-61
2024/04/07 11:18:42;;;;;;;0.70;0.60;;;21.20;1.00;;;;;;2612734;54;21594;-62
2024/04/07 11:21:10;;;;;;;0.70;0.60;;;21.30;1.00;;;;;;2613013;47;20175;-61
2024/04/07 11:23:40;;;;;;;0.70;0.60;;;21.40;1.00;;;;;;2613525;54;20439;-62
2024/04/07 11:26:06;;;;;;;0.70;0.50;;;21.50;1.00;;;;;;2612292;54;20423;-64
2024/04/07 11:28:31;;;;;;;0.70;0.40;;;21.60;1.00;;;;;;2613539;31;20962;-66
2024/04/07 11:30:58;;;;;;;0.70;0.50;;;21.90;1.00;;;;;;2613077;54;20397;-64
2024/04/07 11:33:25;;;;;;;0.60;0.30;;;22.10;1.00;;;;;;2613333;54;20159;-68
2024/04/07 11:35:52;;;;;;;0.60;0.30;;;22.30;1.00;;;;;;2613101;39;20914;-69
2024/04/07 11:38:18;;;;;;;0.60;0.30;;;22.40;1.00;;;;;;2613641;47;20419;-70
2024/04/07 11:40:44;;;;;;;0.60;0.20;;;22.50;1.00;;;;;;2613771;54;20403;-73
2024/04/07 11:43:10;;;;;;;0.60;0.30;;;22.50;1.00;;;;;;2615048;54;20158;-69
2024/04/07 11:45:40;;;;;;;0.60;0.30;;;22.40;1.00;;;;;;2613835;54;20181;-71
2024/04/07 11:48:07;;;;;;;0.60;0.30;;;22.60;1.00;;;;;;2618465;47;20435;-68
2024/04/07 11:50:34;;;;;;;0.60;0.20;;;22.70;1.00;;;;;;2615660;54;20466;-68
2024/04/07 11:52:59;;;;;;;0.60;0.20;;;22.80;1.00;;;;;;2613960;54;20523;-76
2024/04/07 11:55:25;;;;;;;0.60;0.20;;;22.70;1.00;;;;;;2614384;54;20420;-74
2024/04/07 11:57:54;;;;;;;0.60;0.20;;;22.40;1.00;;;;;;2613971;54;20197;-72
2024/04/07 12:00:20;;;;;;;0.60;0.20;;;22.20;1.00;;;;;;2614051;54;20400;-71
2024/04/07 12:02:46;;;;;;;0.60;0.20;;;22.00;1.00;;;;;;2613438;54;20403;-73
2024/04/07 12:05:13;;;;;;;0.60;0.20;;;21.80;1.00;;;;;;2614306;39;20883;-73
2024/04/07 12:07:39;;;;;;;0.60;0.30;;;21.70;1.00;;;;;;2613530;54;21072;-73
2024/04/07 12:10:05;;;;;;;0.60;0.30;;;21.60;1.00;;;;;;2613788;54;20399;-66
2024/04/07 12:12:30;;;;;;;0.60;0.30;;;21.90;1.00;;;;;;2613117;54;20151;-68
2024/04/07 12:14:56;;;;;;;0.60;0.30;;;22.50;1.00;;;;;;2613864;54;20940;-67
2024/04/07 12:17:22;;;;;;;0.60;0.30;;;22.90;1.00;;;;;;2612583;47;20170;-68
2024/04/07 12:19:48;;;;;;;0.60;0.30;;;22.90;1.00;;;;;;2613417;39;20529;-67
2024/04/07 12:22:24;;;;;;;0.60;0.30;;;22.90;1.00;;;;;;2613330;54;20432;-68
2024/04/07 12:24:50;;;;;;;0.60;0.30;;;22.90;1.00;;;;;;2613831;51;20158;-68
2024/04/07 12:27:16;;;;;;;0.60;0.30;;;23.00;1.00;;;;;;2613241;54;20967;-66
2024/04/07 12:29:43;;;;;;;0.60;0.20;;;22.70;1.00;;;;;;2613361;54;20511;-67
2024/04/07 12:32:08;;;;;;;0.60;0.30;;;22.50;1.00;;;;;;2613095;54;20391;-70
2024/04/07 12:34:34;;;;;;;0.60;0.30;;;22.70;1.00;;;;;;2613859;54;20418;-69
2024/04/07 12:37:00;;;;;;;0.60;0.30;;;22.90;1.00;;;;;;2613700;54;20209;-68
2024/04/07 12:39:26;;;;;;;0.60;0.30;;;23.10;1.00;;;;;;2612714;54;21010;-65
2024/04/07 12:41:52;;;;;;;0.60;0.30;;;23.20;1.00;;;;;;2612208;54;20515;-70
2024/04/07 12:44:18;;;;;;;0.60;0.20;;;23.00;1.00;;;;;;2612540;54;20391;-72
2024/04/07 12:46:45;;;;;;;0.60;0.30;;;22.90;1.00;;;;;;2612594;47;20171;-71
2024/04/07 12:49:12;;;;;;;0.60;0.30;;;22.70;1.00;;;;;;2612551;54;20518;-70
2024/04/07 12:51:37;;;;;;;0.60;0.30;;;22.90;1.00;;;;;;2613164;39;20753;-69
2024/04/07 12:54:03;;;;;;;0.60;0.30;;;22.80;1.00;;;;;;2612932;54;20403;-65
2024/04/07 12:56:29;;;;;;;0.60;0.30;;;23.00;1.00;;;;;;2614921;31;20645;-71